• Join FlightAware (Why Join?)
  • Login
  • US Flag 
12:05AM EDT


 

Airport Tracker/Info


-or-


 

Live Flight TrackerFlight Track Log ✈ AWE1693 ✈ 29-Jun-2013 ✈ KDCA - KCLT

Flight Track Log - Related Links

Times and Time Zones

All times are in EDT time to prevent confusion due to time zone crossing. See the AWE1693 flight status page for this flight to view local times or setup timezone preferences in your user account.

Time Position Orientation Groundspeed Altitude Reporting Facility
EDT Latitude Longitude Course Direction KTS MPH feet Rate Location/Type
09:49AM 38.8167 -77.0333 201° Southwest 152 175 1,500  Level Potomac TRACON
09:50AM 38.7667 -77.0333 180° South 224 258 3,200 2,160 Climbing Potomac TRACON
09:51AM 38.7167 -77.0833 218° Southwest 262 302 5,900 3,180 Climbing Potomac TRACON
09:52AM 38.5558 -77.3572 222° Southwest  Level FlightAware Approximate
09:52AM 38.6667 -77.1667 232° Southwest 258 297 9,700  Level Potomac TRACON
09:52AM 38.6167 -77.2333 226° Southwest 288 331 11,000 900 Climbing Potomac TRACON
09:53AM 38.4810 -77.4507 225° Southwest  Level FlightAware Approximate
09:54AM 38.4043 -77.5395 201° Southwest  Level FlightAware Approximate
09:54AM 38.5550 -77.3175 227° Southwest 349 402 11,500  Level Washington Center
09:54AM 38.5036 -77.4064 234° Southwest 360 414 14,800 2,820 Climbing Washington Center
09:55AM 38.4394 -77.5028 230° Southwest 366 421 17,100 2,220 Climbing Washington Center
09:56AM 38.3753 -77.6019 230° Southwest 366 421 19,300 1,920 Climbing Washington Center
09:57AM 38.3111 -77.7033 231° Southwest 366 421 21,000 1,140 Climbing Washington Center
09:58AM 38.2425 -77.8072 230° Southwest 376 433 21,700 1,020 Climbing Washington Center
10:00AM 38.1717 -77.9108 229° Southwest 381 438 23,100 1,860 Climbing Washington Center
10:00AM 38.1028 -78.0167 230° Southwest 386 444 25,400 1,740 Climbing Washington Center
10:01AM 38.0339 -78.1228 231° Southwest 392 451 26,600 1,320 Climbing Washington Center
10:03AM 37.9606 -78.2386 231° Southwest 392 451 28,100 1,440 Climbing Washington Center
10:04AM 37.8872 -78.3414 228° Southwest 392 451 29,600 960 Climbing Washington Center
10:04AM 37.8139 -78.4492 229° Southwest 397 457 30,000 180 Climbing Washington Center
10:05AM 37.7406 -78.5489 227° Southwest 397 457 30,000  Level Washington Center
10:06AM 37.6756 -78.6458 230° Southwest 402 463 30,000  Level Washington Center
10:07AM 37.6019 -78.7453 227° Southwest 396 456 30,000 -120 Level Washington Center
10:08AM 37.5436 -78.8292 229° Southwest 396 456 29,800 -720 Descending Washington Center
10:10AM 37.4631 -78.9461 229° Southwest 395 455 28,600 -900 Descending Washington Center
10:11AM 37.3894 -79.0475 228° Southwest 378 435 28,000 -360 Descending Washington Center
10:11AM 37.3197 -79.1436 228° Southwest 378 435 28,000  Level Washington Center
10:12AM 37.2503 -79.2369 227° Southwest 373 429 28,000  Level Washington Center
10:13AM 37.1667 -79.3111 215° Southwest 368 423 28,000  Level Washington Center
10:15AM 37.0808 -79.3797 213° Southwest 368 423 28,000  Level Washington Center
10:16AM 37.0039 -79.4436 214° Southwest 379 436 28,000  Level Washington Center
10:16AM 36.9158 -79.5147 213° Southwest 379 436 28,000  Level Washington Center
10:17AM 36.8303 -79.5856 214° Southwest 379 436 28,000  Level Washington Center
10:18AM 36.7422 -79.6589 214° Southwest 379 436 28,000 -60 Level Washington Center
10:19AM 36.6478 -79.7367 213° Southwest 379 436 27,900 -540 Descending Washington Center
10:21AM 36.5619 -79.8044 212° Southwest 379 436 27,000 -1,020 Descending Washington Center
10:21AM 36.4939 -79.8553 211° Southwest 369 425 26,200 -1,620 Descending Atlanta Center
10:22AM 36.4086 -79.9242 213° Southwest 369 425 24,200 -2,040 Descending Atlanta Center
10:23AM 36.3275 -79.9928 214° Southwest 364 419 22,200 -1,140 Descending Atlanta Center
10:24AM 36.2544 -80.0556 215° Southwest 357 411 22,000 -720 Descending Atlanta Center
10:25AM 36.1772 -80.1236 215° Southwest 357 411 20,800 -4,500 Descending Atlanta Center
10:26AM 36.1431 -80.2258 248° West 333 383 13,000 -1,800 Descending Atlanta Center
10:27AM 36.1150 -80.3297 252° West 305 351 17,200 1,800 Climbing Atlanta Center
10:28AM 36.0367 -80.3642 200° South 280 322 16,700 -780 Descending Atlanta Center
10:29AM 35.9769 -80.3875 198° South 305 351 15,900 -1,260 Descending Atlanta Center
10:30AM 35.8839 -80.4147 193° South 303 349 14,300 -1,380 Descending Atlanta Center
10:31AM 35.7950 -80.4494 198° South 307 353 12,800 -1,440 Descending Atlanta Center
10:32AM 35.7278 -80.5061 214° Southwest 296 341 11,400 -1,500 Descending Atlanta Center
10:33AM 35.6539 -80.5400 200° South 291 335 9,800 -1,440 Descending Atlanta Center
10:34AM 35.5794 -80.5636 194° South 288 331 8,600 -1,200 Descending Atlanta Center
10:34AM 35.5794 -80.5636 194° South 285 328 8,600 -1,020 Level Atlanta Center
10:35AM 35.5133 -80.5867 196° South 252 290 7,600 -840 Descending Atlanta Center
10:36AM 35.4514 -80.6147 200° South 261 300 7,000 -900 Descending Atlanta Center
10:37AM 35.4031 -80.6781 227° Southwest 253 291 5,800 -1,440 Descending Atlanta Center
10:38AM 35.3531 -80.7539 231° Southwest 248 285 4,100 -1,620 Descending Atlanta Center